sensor_id;sensor_type;location;lat;lon;timestamp;pressure;altitude;pressure_sealevel;temperature;humidity
35307;BME280;21420;52.196;21.416;2023-12-04T00:02:20;100562.39;;;-2.18;74.97
35307;BME280;21420;52.196;21.416;2023-12-04T00:04:47;100561.61;;;-2.17;74.87
35307;BME280;21420;52.196;21.416;2023-12-04T00:07:14;100562.42;;;-2.16;74.95
35307;BME280;21420;52.196;21.416;2023-12-04T00:09:41;100563.77;;;-2.16;75.03
35307;BME280;21420;52.196;21.416;2023-12-04T00:12:07;100566.70;;;-2.18;75.01
35307;BME280;21420;52.196;21.416;2023-12-04T00:14:34;100569.55;;;-2.16;75.01
35307;BME280;21420;52.196;21.416;2023-12-04T00:17:01;100572.40;;;-2.16;74.96
35307;BME280;21420;52.196;21.416;2023-12-04T00:19:28;100570.98;;;-2.18;74.95
35307;BME280;21420;52.196;21.416;2023-12-04T00:21:56;100572.48;;;-2.15;75.10
35307;BME280;21420;52.196;21.416;2023-12-04T00:24:23;100572.98;;;-2.13;75.16
35307;BME280;21420;52.196;21.416;2023-12-04T00:26:50;100574.16;;;-2.14;74.98
35307;BME280;21420;52.196;21.416;2023-12-04T00:29:18;100576.46;;;-2.14;75.03
35307;BME280;21420;52.196;21.416;2023-12-04T00:31:45;100573.75;;;-2.16;75.17
35307;BME280;21420;52.196;21.416;2023-12-04T00:34:12;100577.81;;;-2.18;75.09
35307;BME280;21420;52.196;21.416;2023-12-04T00:36:39;100577.02;;;-2.16;74.98
35307;BME280;21420;52.196;21.416;2023-12-04T00:39:05;100580.24;;;-2.13;75.20
35307;BME280;21420;52.196;21.416;2023-12-04T00:41:32;100582.18;;;-2.12;75.09
35307;BME280;21420;52.196;21.416;2023-12-04T00:43:59;100582.89;;;-2.12;75.07
35307;BME280;21420;52.196;21.416;2023-12-04T00:46:26;100585.02;;;-2.12;75.07
35307;BME280;21420;52.196;21.416;2023-12-04T00:48:53;100586.04;;;-2.12;75.09
35307;BME280;21420;52.196;21.416;2023-12-04T00:55:20;100590.88;;;-2.12;75.09
35307;BME280;21420;52.196;21.416;2023-12-04T00:57:47;100592.29;;;-2.11;75.22
35307;BME280;21420;52.196;21.416;2023-12-04T01:00:15;100590.15;;;-2.13;75.18
35307;BME280;21420;52.196;21.416;2023-12-04T01:02:43;100591.88;;;-2.14;75.26
35307;BME280;21420;52.196;21.416;2023-12-04T01:05:10;100590.06;;;-2.13;75.16
35307;BME280;21420;52.196;21.416;2023-12-04T01:07:37;100592.42;;;-2.12;75.10
35307;BME280;21420;52.196;21.416;2023-12-04T01:10:05;100595.38;;;-2.12;75.10
35307;BME280;21420;52.196;21.416;2023-12-04T01:12:32;100597.74;;;-2.13;75.10
35307;BME280;21420;52.196;21.416;2023-12-04T01:14:59;100599.80;;;-2.12;75.12
35307;BME280;21420;52.196;21.416;2023-12-04T01:17:26;100599.21;;;-2.11;75.17
35307;BME280;21420;52.196;21.416;2023-12-04T01:19:53;100600.81;;;-2.08;75.35
35307;BME280;21420;52.196;21.416;2023-12-04T01:22:20;100600.41;;;-2.06;75.16
35307;BME280;21420;52.196;21.416;2023-12-04T01:24:47;100601.70;;;-2.05;75.30
35307;BME280;21420;52.196;21.416;2023-12-04T01:27:15;100600.80;;;-2.05;75.38
35307;BME280;21420;52.196;21.416;2023-12-04T01:29:42;100600.32;;;-2.04;75.29
35307;BME280;21420;52.196;21.416;2023-12-04T01:32:08;100602.65;;;-2.04;75.32
35307;BME280;21420;52.196;21.416;2023-12-04T01:34:35;100600.84;;;-2.02;75.20
35307;BME280;21420;52.196;21.416;2023-12-04T01:37:03;100601.94;;;-2.00;75.30
35307;BME280;21420;52.196;21.416;2023-12-04T01:39:30;100602.02;;;-1.98;75.38
35307;BME280;21420;52.196;21.416;2023-12-04T01:41:57;100606.70;;;-2.00;75.20
35307;BME280;21420;52.196;21.416;2023-12-04T01:44:24;100612.83;;;-2.00;75.18
35307;BME280;21420;52.196;21.416;2023-12-04T01:46:51;100617.36;;;-1.99;75.27
35307;BME280;21420;52.196;21.416;2023-12-04T01:49:18;100614.89;;;-1.98;75.19
35307;BME280;21420;52.196;21.416;2023-12-04T01:51:46;100617.30;;;-1.95;75.34
35307;BME280;21420;52.196;21.416;2023-12-04T01:54:13;100616.65;;;-1.92;75.45
35307;BME280;21420;52.196;21.416;2023-12-04T01:56:41;100614.48;;;-1.90;75.48
35307;BME280;21420;52.196;21.416;2023-12-04T01:59:08;100613.70;;;-1.87;75.51
35307;BME280;21420;52.196;21.416;2023-12-04T02:01:36;100612.97;;;-1.86;75.42
35307;BME280;21420;52.196;21.416;2023-12-04T02:04:04;100617.73;;;-1.84;75.35
35307;BME280;21420;52.196;21.416;2023-12-04T02:06:31;100619.84;;;-1.83;75.52
35307;BME280;21420;52.196;21.416;2023-12-04T02:08:59;100623.06;;;-1.83;75.54
35307;BME280;21420;52.196;21.416;2023-12-04T02:11:26;100627.63;;;-1.82;75.46
35307;BME280;21420;52.196;21.416;2023-12-04T02:13:53;100627.70;;;-1.82;75.47
35307;BME280;21420;52.196;21.416;2023-12-04T02:16:21;100627.71;;;-1.81;75.34
35307;BME280;21420;52.196;21.416;2023-12-04T02:18:51;100626.42;;;-1.81;75.35
35307;BME280;21420;52.196;21.416;2023-12-04T02:21:18;100622.98;;;-1.80;75.31
35307;BME280;21420;52.196;21.416;2023-12-04T02:23:52;100613.35;;;-1.78;75.43
35307;BME280;21420;52.196;21.416;2023-12-04T02:26:25;100615.86;;;-1.76;75.60
35307;BME280;21420;52.196;21.416;2023-12-04T02:28:58;100627.41;;;-1.75;75.51
35307;BME280;21420;52.196;21.416;2023-12-04T02:31:27;100631.60;;;-1.75;75.53
35307;BME280;21420;52.196;21.416;2023-12-04T02:33:57;100631.23;;;-1.74;75.64
35307;BME280;21420;52.196;21.416;2023-12-04T02:36:27;100636.63;;;-1.73;75.55
35307;BME280;21420;52.196;21.416;2023-12-04T02:38:56;100639.24;;;-1.74;75.41
35307;BME280;21420;52.196;21.416;2023-12-04T02:41:23;100636.84;;;-1.73;75.47
35307;BME280;21420;52.196;21.416;2023-12-04T02:44:16;100636.23;;;-1.71;75.55
35307;BME280;21420;52.196;21.416;2023-12-04T02:46:43;100638.78;;;-1.65;75.52
35307;BME280;21420;52.196;21.416;2023-12-04T02:49:10;100638.68;;;-1.63;75.64
35307;BME280;21420;52.196;21.416;2023-12-04T02:51:37;100641.36;;;-1.63;75.66
35307;BME280;21420;52.196;21.416;2023-12-04T02:54:06;100638.19;;;-1.60;75.76
35307;BME280;21420;52.196;21.416;2023-12-04T02:56:33;100640.25;;;-1.58;75.84
35307;BME280;21420;52.196;21.416;2023-12-04T02:59:00;100638.61;;;-1.57;75.77
35307;BME280;21420;52.196;21.416;2023-12-04T03:01:27;100647.42;;;-1.57;75.73
35307;BME280;21420;52.196;21.416;2023-12-04T03:03:53;100650.61;;;-1.58;75.54
35307;BME280;21420;52.196;21.416;2023-12-04T03:06:20;100649.88;;;-1.57;75.65
35307;BME280;21420;52.196;21.416;2023-12-04T03:08:48;100651.00;;;-1.58;75.53
35307;BME280;21420;52.196;21.416;2023-12-04T03:11:14;100651.15;;;-1.59;75.48
35307;BME280;21420;52.196;21.416;2023-12-04T03:13:41;100651.38;;;-1.62;75.60
35307;BME280;21420;52.196;21.416;2023-12-04T03:19:30;100657.84;;;-1.73;75.35
35307;BME280;21420;52.196;21.416;2023-12-04T03:21:57;100654.91;;;-1.79;75.41
35307;BME280;21420;52.196;21.416;2023-12-04T03:24:24;100658.16;;;-1.84;75.32
35307;BME280;21420;52.196;21.416;2023-12-04T03:26:51;100661.63;;;-1.90;75.29
35307;BME280;21420;52.196;21.416;2023-12-04T03:29:18;100662.35;;;-1.95;75.32
35307;BME280;21420;52.196;21.416;2023-12-04T03:31:45;100664.58;;;-1.97;75.39
35307;BME280;21420;52.196;21.416;2023-12-04T03:34:12;100668.61;;;-2.04;75.32
35307;BME280;21420;52.196;21.416;2023-12-04T03:36:39;100664.27;;;-2.10;75.28
35307;BME280;21420;52.196;21.416;2023-12-04T03:39:06;100667.41;;;-2.15;75.25
35307;BME280;21420;52.196;21.416;2023-12-04T03:41:32;100671.98;;;-2.21;75.10
35307;BME280;21420;52.196;21.416;2023-12-04T03:43:59;100673.09;;;-2.25;75.15
35307;BME280;21420;52.196;21.416;2023-12-04T03:46:26;100670.92;;;-2.29;75.26
35307;BME280;21420;52.196;21.416;2023-12-04T03:48:53;100676.25;;;-2.33;75.15
35307;BME280;21420;52.196;21.416;2023-12-04T03:51:20;100675.56;;;-2.35;75.10
35307;BME280;21420;52.196;21.416;2023-12-04T03:53:47;100678.66;;;-2.39;75.21
35307;BME280;21420;52.196;21.416;2023-12-04T03:56:14;100681.19;;;-2.39;75.10
35307;BME280;21420;52.196;21.416;2023-12-04T03:58:41;100687.02;;;-2.40;75.15
35307;BME280;21420;52.196;21.416;2023-12-04T04:01:07;100685.81;;;-2.41;75.22
35307;BME280;21420;52.196;21.416;2023-12-04T04:03:34;100681.75;;;-2.44;75.14
35307;BME280;21420;52.196;21.416;2023-12-04T04:06:01;100689.09;;;-2.45;75.11
35307;BME280;21420;52.196;21.416;2023-12-04T04:08:28;100681.48;;;-2.46;75.16
35307;BME280;21420;52.196;21.416;2023-12-04T04:10:55;100681.25;;;-2.47;75.17
35307;BME280;21420;52.196;21.416;2023-12-04T04:13:21;100683.08;;;-2.47;75.08
35307;BME280;21420;52.196;21.416;2023-12-04T04:15:48;100688.36;;;-2.49;75.34
35307;BME280;21420;52.196;21.416;2023-12-04T04:18:15;100695.08;;;-2.51;75.21
35307;BME280;21420;52.196;21.416;2023-12-04T04:20:42;100698.83;;;-2.52;75.16
35307;BME280;21420;52.196;21.416;2023-12-04T04:23:09;100695.33;;;-2.53;75.10
35307;BME280;21420;52.196;21.416;2023-12-04T04:25:35;100698.59;;;-2.53;75.15
35307;BME280;21420;52.196;21.416;2023-12-04T04:28:03;100697.02;;;-2.54;75.28
35307;BME280;21420;52.196;21.416;2023-12-04T04:30:30;100696.73;;;-2.55;75.20
35307;BME280;21420;52.196;21.416;2023-12-04T04:32:57;100694.73;;;-2.56;75.37
35307;BME280;21420;52.196;21.416;2023-12-04T04:35:24;100701.53;;;-2.57;75.16
35307;BME280;21420;52.196;21.416;2023-12-04T04:37:50;100700.86;;;-2.59;75.28
35307;BME280;21420;52.196;21.416;2023-12-04T04:40:17;100700.14;;;-2.60;75.29
35307;BME280;21420;52.196;21.416;2023-12-04T04:42:44;100701.20;;;-2.61;75.22
35307;BME280;21420;52.196;21.416;2023-12-04T04:45:12;100704.27;;;-2.60;75.22
35307;BME280;21420;52.196;21.416;2023-12-04T04:47:38;100707.08;;;-2.58;75.35
35307;BME280;21420;52.196;21.416;2023-12-04T04:50:06;100707.69;;;-2.60;75.28
35307;BME280;21420;52.196;21.416;2023-12-04T04:52:33;100708.63;;;-2.61;75.22
35307;BME280;21420;52.196;21.416;2023-12-04T04:55:04;100706.19;;;-2.63;75.17
35307;BME280;21420;52.196;21.416;2023-12-04T04:57:31;100707.61;;;-2.64;75.17
35307;BME280;21420;52.196;21.416;2023-12-04T04:59:58;100710.02;;;-2.65;75.19
35307;BME280;21420;52.196;21.416;2023-12-04T05:02:25;100716.04;;;-2.64;75.20
35307;BME280;21420;52.196;21.416;2023-12-04T05:04:52;100717.55;;;-2.64;75.31
35307;BME280;21420;52.196;21.416;2023-12-04T05:07:19;100714.45;;;-2.63;75.28
35307;BME280;21420;52.196;21.416;2023-12-04T05:09:45;100714.20;;;-2.65;75.13
35307;BME280;21420;52.196;21.416;2023-12-04T05:12:12;100709.66;;;-2.67;75.16
35307;BME280;21420;52.196;21.416;2023-12-04T05:14:39;100713.42;;;-2.68;75.14
35307;BME280;21420;52.196;21.416;2023-12-04T05:17:06;100712.55;;;-2.69;75.18
35307;BME280;21420;52.196;21.416;2023-12-04T05:19:32;100721.33;;;-2.70;75.14
35307;BME280;21420;52.196;21.416;2023-12-04T05:22:00;100723.13;;;-2.72;75.07
35307;BME280;21420;52.196;21.416;2023-12-04T05:24:27;100725.02;;;-2.74;75.14
35307;BME280;21420;52.196;21.416;2023-12-04T05:26:53;100723.40;;;-2.75;75.24
35307;BME280;21420;52.196;21.416;2023-12-04T05:29:20;100725.39;;;-2.75;75.24
35307;BME280;21420;52.196;21.416;2023-12-04T05:31:47;100729.88;;;-2.75;75.15
35307;BME280;21420;52.196;21.416;2023-12-04T05:36:30;100729.17;;;-2.73;75.28
35307;BME280;21420;52.196;21.416;2023-12-04T05:38:57;100729.23;;;-2.75;75.27
35307;BME280;21420;52.196;21.416;2023-12-04T05:41:27;100731.67;;;-2.76;75.21
35307;BME280;21420;52.196;21.416;2023-12-04T05:43:54;100735.42;;;-2.76;75.19
35307;BME280;21420;52.196;21.416;2023-12-04T05:46:20;100733.70;;;-2.77;75.22
35307;BME280;21420;52.196;21.416;2023-12-04T05:48:47;100738.45;;;-2.77;75.19
35307;BME280;21420;52.196;21.416;2023-12-04T05:51:15;100737.16;;;-2.78;75.17
35307;BME280;21420;52.196;21.416;2023-12-04T05:53:42;100735.84;;;-2.78;75.21
35307;BME280;21420;52.196;21.416;2023-12-04T05:56:09;100739.49;;;-2.77;75.31
35307;BME280;21420;52.196;21.416;2023-12-04T05:58:36;100738.42;;;-2.77;75.19
35307;BME280;21420;52.196;21.416;2023-12-04T06:01:03;100735.59;;;-2.78;75.17
35307;BME280;21420;52.196;21.416;2023-12-04T06:03:30;100736.98;;;-2.79;75.15
35307;BME280;21420;52.196;21.416;2023-12-04T06:05:57;100736.39;;;-2.79;75.22
35307;BME280;21420;52.196;21.416;2023-12-04T06:08:28;100739.03;;;-2.79;75.24
35307;BME280;21420;52.196;21.416;2023-12-04T06:10:55;100748.79;;;-2.78;75.26
35307;BME280;21420;52.196;21.416;2023-12-04T06:13:22;100751.92;;;-2.80;75.26
35307;BME280;21420;52.196;21.416;2023-12-04T06:15:49;100754.60;;;-2.81;75.33
35307;BME280;21420;52.196;21.416;2023-12-04T06:18:16;100757.75;;;-2.81;75.11
35307;BME280;21420;52.196;21.416;2023-12-04T06:20:43;100754.87;;;-2.81;75.13
35307;BME280;21420;52.196;21.416;2023-12-04T06:23:10;100760.73;;;-2.79;75.22
35307;BME280;21420;52.196;21.416;2023-12-04T06:25:37;100761.54;;;-2.79;75.33
35307;BME280;21420;52.196;21.416;2023-12-04T06:28:05;100760.19;;;-2.79;75.29
35307;BME280;21420;52.196;21.416;2023-12-04T06:30:32;100757.40;;;-2.79;75.13
35307;BME280;21420;52.196;21.416;2023-12-04T06:32:59;100760.83;;;-2.80;75.15
35307;BME280;21420;52.196;21.416;2023-12-04T06:35:27;100765.19;;;-2.79;75.19
35307;BME280;21420;52.196;21.416;2023-12-04T06:37:54;100765.71;;;-2.79;75.12
35307;BME280;21420;52.196;21.416;2023-12-04T06:40:22;100758.65;;;-2.78;75.09
35307;BME280;21420;52.196;21.416;2023-12-04T06:42:49;100764.15;;;-2.77;75.29
35307;BME280;21420;52.196;21.416;2023-12-04T06:45:17;100765.71;;;-2.77;75.26
35307;BME280;21420;52.196;21.416;2023-12-04T06:47:45;100771.52;;;-2.76;75.16
35307;BME280;21420;52.196;21.416;2023-12-04T06:50:12;100768.38;;;-2.75;75.13
35307;BME280;21420;52.196;21.416;2023-12-04T06:52:39;100769.05;;;-2.76;75.14
35307;BME280;21420;52.196;21.416;2023-12-04T06:55:06;100768.14;;;-2.76;75.17
35307;BME280;21420;52.196;21.416;2023-12-04T06:57:33;100767.85;;;-2.75;75.22
35307;BME280;21420;52.196;21.416;2023-12-04T07:00:00;100769.92;;;-2.73;75.23
35307;BME280;21420;52.196;21.416;2023-12-04T07:02:45;100772.61;;;-2.75;75.22
35307;BME280;21420;52.196;21.416;2023-12-04T07:05:14;100773.30;;;-2.76;75.30
35307;BME280;21420;52.196;21.416;2023-12-04T07:07:41;100770.98;;;-2.76;75.24
35307;BME280;21420;52.196;21.416;2023-12-04T07:10:10;100773.94;;;-2.76;75.31
35307;BME280;21420;52.196;21.416;2023-12-04T07:12:45;100770.78;;;-2.75;75.20
35307;BME280;21420;52.196;21.416;2023-12-04T07:15:12;100772.06;;;-2.73;75.17
35307;BME280;21420;52.196;21.416;2023-12-04T07:17:39;100772.94;;;-2.72;75.30
35307;BME280;21420;52.196;21.416;2023-12-04T07:20:07;100779.06;;;-2.72;75.28
35307;BME280;21420;52.196;21.416;2023-12-04T07:22:35;100779.25;;;-2.70;75.22
35307;BME280;21420;52.196;21.416;2023-12-04T07:25:05;100780.48;;;-2.69;75.18
35307;BME280;21420;52.196;21.416;2023-12-04T07:27:34;100776.21;;;-2.68;75.28
35307;BME280;21420;52.196;21.416;2023-12-04T07:30:02;100778.92;;;-2.67;75.38
35307;BME280;21420;52.196;21.416;2023-12-04T07:32:30;100782.72;;;-2.65;75.13
35307;BME280;21420;52.196;21.416;2023-12-04T07:34:57;100785.89;;;-2.63;75.25
35307;BME280;21420;52.196;21.416;2023-12-04T07:37:25;100784.00;;;-2.61;75.27
35307;BME280;21420;52.196;21.416;2023-12-04T07:39:53;100780.96;;;-2.56;75.18
35307;BME280;21420;52.196;21.416;2023-12-04T07:42:20;100773.73;;;-2.54;75.24
35307;BME280;21420;52.196;21.416;2023-12-04T07:44:46;100775.95;;;-2.52;75.16
35307;BME280;21420;52.196;21.416;2023-12-04T07:47:13;100778.77;;;-2.48;75.14
35307;BME280;21420;52.196;21.416;2023-12-04T07:49:44;100786.61;;;-2.44;75.28
35307;BME280;21420;52.196;21.416;2023-12-04T07:52:11;100788.70;;;-2.42;75.19
35307;BME280;21420;52.196;21.416;2023-12-04T07:54:39;100791.55;;;-2.42;75.16
35307;BME280;21420;52.196;21.416;2023-12-04T07:57:06;100794.55;;;-2.41;75.13
35307;BME280;21420;52.196;21.416;2023-12-04T07:59:33;100794.19;;;-2.41;75.18
35307;BME280;21420;52.196;21.416;2023-12-04T08:01:59;100793.59;;;-2.42;75.16
35307;BME280;21420;52.196;21.416;2023-12-04T08:04:26;100793.79;;;-2.42;75.20
35307;BME280;21420;52.196;21.416;2023-12-04T08:06:54;100796.09;;;-2.39;75.15
35307;BME280;21420;52.196;21.416;2023-12-04T08:09:21;100795.35;;;-2.36;75.16
35307;BME280;21420;52.196;21.416;2023-12-04T08:11:48;100798.78;;;-2.33;75.19
35307;BME280;21420;52.196;21.416;2023-12-04T08:14:15;100800.88;;;-2.30;75.12
35307;BME280;21420;52.196;21.416;2023-12-04T08:16:42;100803.56;;;-2.27;75.15
35307;BME280;21420;52.196;21.416;2023-12-04T08:19:09;100802.42;;;-2.25;75.07
35307;BME280;21420;52.196;21.416;2023-12-04T08:21:37;100803.28;;;-2.19;75.18
35307;BME280;21420;52.196;21.416;2023-12-04T08:24:04;100801.42;;;-2.14;75.12
35307;BME280;21420;52.196;21.416;2023-12-04T08:26:31;100802.20;;;-2.11;75.16
35307;BME280;21420;52.196;21.416;2023-12-04T08:28:58;100803.17;;;-2.11;75.27
35307;BME280;21420;52.196;21.416;2023-12-04T08:31:24;100804.89;;;-2.10;75.12
35307;BME280;21420;52.196;21.416;2023-12-04T08:33:51;100810.11;;;-2.06;75.14
35307;BME280;21420;52.196;21.416;2023-12-04T08:36:18;100816.22;;;-1.75;75.52
35307;BME280;21420;52.196;21.416;2023-12-04T08:38:45;100822.26;;;-1.71;75.43
35307;BME280;21420;52.196;21.416;2023-12-04T08:41:13;100823.76;;;-1.78;75.18
35307;BME280;21420;52.196;21.416;2023-12-04T08:43:40;100825.93;;;-1.82;75.10
35307;BME280;21420;52.196;21.416;2023-12-04T08:46:06;100829.72;;;-1.75;75.19
35307;BME280;21420;52.196;21.416;2023-12-04T08:48:34;100832.30;;;-1.67;75.26
35307;BME280;21420;52.196;21.416;2023-12-04T08:51:01;100835.18;;;-1.56;75.44
35307;BME280;21420;52.196;21.416;2023-12-04T08:53:28;100833.40;;;-1.57;75.19
35307;BME280;21420;52.196;21.416;2023-12-04T08:55:54;100837.65;;;-1.60;75.16
35307;BME280;21420;52.196;21.416;2023-12-04T08:58:21;100836.06;;;-1.61;75.00
35307;BME280;21420;52.196;21.416;2023-12-04T09:00:48;100836.68;;;-1.65;75.07
35307;BME280;21420;52.196;21.416;2023-12-04T09:03:15;100841.70;;;-1.68;75.01
35307;BME280;21420;52.196;21.416;2023-12-04T09:05:52;100841.91;;;-1.68;74.97
35307;BME280;21420;52.196;21.416;2023-12-04T09:08:19;100845.23;;;-1.65;74.94
35307;BME280;21420;52.196;21.416;2023-12-04T09:11:02;100848.35;;;-1.62;74.98
35307;BME280;21420;52.196;21.416;2023-12-04T09:13:48;100844.48;;;-1.65;74.85
35307;BME280;21420;52.196;21.416;2023-12-04T09:16:15;100837.30;;;-1.71;74.68
35307;BME280;21420;52.196;21.416;2023-12-04T09:18:42;100834.25;;;-1.73;74.88
35307;BME280;21420;52.196;21.416;2023-12-04T09:21:09;100837.77;;;-1.76;74.86
35307;BME280;21420;52.196;21.416;2023-12-04T09:23:36;100840.67;;;-1.78;74.91
35307;BME280;21420;52.196;21.416;2023-12-04T09:26:03;100836.27;;;-1.81;74.81
35307;BME280;21420;52.196;21.416;2023-12-04T09:28:30;100842.06;;;-1.81;74.77
35307;BME280;21420;52.196;21.416;2023-12-04T09:31:00;100839.77;;;-1.80;74.93
35307;BME280;21420;52.196;21.416;2023-12-04T09:33:27;100842.10;;;-1.81;74.91
35307;BME280;21420;52.196;21.416;2023-12-04T09:35:55;100842.14;;;-1.79;75.00
35307;BME280;21420;52.196;21.416;2023-12-04T09:38:21;100838.27;;;-1.74;75.11
35307;BME280;21420;52.196;21.416;2023-12-04T09:40:49;100830.70;;;-1.71;74.92
35307;BME280;21420;52.196;21.416;2023-12-04T09:43:19;100829.42;;;-1.67;74.89
35307;BME280;21420;52.196;21.416;2023-12-04T09:45:46;100826.92;;;-1.61;75.01
35307;BME280;21420;52.196;21.416;2023-12-04T09:48:13;100826.23;;;-1.55;74.90
35307;BME280;21420;52.196;21.416;2023-12-04T09:50:41;100825.88;;;-1.53;74.98
35307;BME280;21420;52.196;21.416;2023-12-04T09:53:10;100822.16;;;-1.54;74.80
35307;BME280;21420;52.196;21.416;2023-12-04T09:55:38;100817.59;;;-1.55;74.80
35307;BME280;21420;52.196;21.416;2023-12-04T09:58:04;100822.40;;;-1.56;74.92
35307;BME280;21420;52.196;21.416;2023-12-04T10:00:32;100822.50;;;-1.56;74.82
35307;BME280;21420;52.196;21.416;2023-12-04T10:03:00;100821.42;;;-1.59;74.71
35307;BME280;21420;52.196;21.416;2023-12-04T10:05:27;100826.30;;;-1.63;74.56
35307;BME280;21420;52.196;21.416;2023-12-04T10:07:54;100827.38;;;-1.63;74.68
35307;BME280;21420;52.196;21.416;2023-12-04T10:10:21;100824.48;;;-1.67;74.68
35307;BME280;21420;52.196;21.416;2023-12-04T10:12:47;100824.15;;;-1.70;74.61
35307;BME280;21420;52.196;21.416;2023-12-04T10:15:14;100820.14;;;-1.70;74.58
35307;BME280;21420;52.196;21.416;2023-12-04T10:17:43;100819.41;;;-1.67;74.72
35307;BME280;21420;52.196;21.416;2023-12-04T10:20:12;100819.15;;;-1.68;74.73
35307;BME280;21420;52.196;21.416;2023-12-04T10:22:58;100820.30;;;-1.70;74.65
35307;BME280;21420;52.196;21.416;2023-12-04T10:25:28;100824.27;;;-1.70;74.63
35307;BME280;21420;52.196;21.416;2023-12-04T10:28:11;100822.88;;;-1.69;74.70
35307;BME280;21420;52.196;21.416;2023-12-04T10:30:38;100821.95;;;-1.64;74.85
35307;BME280;21420;52.196;21.416;2023-12-04T10:33:07;100817.54;;;-1.61;74.64
35307;BME280;21420;52.196;21.416;2023-12-04T10:35:35;100816.55;;;-1.59;74.76
35307;BME280;21420;52.196;21.416;2023-12-04T10:38:04;100821.33;;;-1.52;74.81
35307;BME280;21420;52.196;21.416;2023-12-04T10:40:33;100823.05;;;-1.45;74.77
35307;BME280;21420;52.196;21.416;2023-12-04T10:43:11;100825.30;;;-1.42;74.78
35307;BME280;21420;52.196;21.416;2023-12-04T10:45:39;100819.92;;;-1.42;74.71
35307;BME280;21420;52.196;21.416;2023-12-04T10:48:07;100820.90;;;-1.45;74.69
35307;BME280;21420;52.196;21.416;2023-12-04T10:50:35;100817.02;;;-1.47;74.64
35307;BME280;21420;52.196;21.416;2023-12-04T10:53:05;100820.73;;;-1.45;74.76
35307;BME280;21420;52.196;21.416;2023-12-04T10:55:33;100826.95;;;-1.42;74.81
35307;BME280;21420;52.196;21.416;2023-12-04T10:58:01;100823.83;;;-1.40;74.72
35307;BME280;21420;52.196;21.416;2023-12-04T11:00:32;100822.13;;;-1.38;74.61
35307;BME280;21420;52.196;21.416;2023-12-04T11:03:04;100818.19;;;-1.39;74.74
35307;BME280;21420;52.196;21.416;2023-12-04T11:05:36;100817.96;;;-1.40;74.52
35307;BME280;21420;52.196;21.416;2023-12-04T11:08:05;100824.73;;;-1.40;74.59
35307;BME280;21420;52.196;21.416;2023-12-04T11:11:00;100824.86;;;-1.42;74.42
35307;BME280;21420;52.196;21.416;2023-12-04T11:13:30;100827.23;;;-1.46;74.49
35307;BME280;21420;52.196;21.416;2023-12-04T11:16:14;100827.46;;;-1.48;74.61
35307;BME280;21420;52.196;21.416;2023-12-04T11:18:44;100825.00;;;-1.47;74.56
35307;BME280;21420;52.196;21.416;2023-12-04T11:21:15;100820.09;;;-1.46;74.46
35307;BME280;21420;52.196;21.416;2023-12-04T11:23:45;100823.23;;;-1.40;74.63
35307;BME280;21420;52.196;21.416;2023-12-04T11:26:12;100823.02;;;-1.37;74.63
35307;BME280;21420;52.196;21.416;2023-12-04T11:28:40;100823.92;;;-1.34;74.60
35307;BME280;21420;52.196;21.416;2023-12-04T11:31:08;100822.27;;;-1.25;74.69
35307;BME280;21420;52.196;21.416;2023-12-04T11:33:38;100825.00;;;-1.22;74.70
35307;BME280;21420;52.196;21.416;2023-12-04T11:36:09;100824.34;;;-1.20;74.69
35307;BME280;21420;52.196;21.416;2023-12-04T11:38:44;100826.35;;;-1.14;74.72
35307;BME280;21420;52.196;21.416;2023-12-04T11:41:19;100825.39;;;-1.09;74.63
35307;BME280;21420;52.196;21.416;2023-12-04T11:43:52;100820.48;;;-1.07;74.70
35307;BME280;21420;52.196;21.416;2023-12-04T11:46:22;100818.29;;;-1.06;74.60
35307;BME280;21420;52.196;21.416;2023-12-04T11:48:53;100812.27;;;-1.02;74.76
35307;BME280;21420;52.196;21.416;2023-12-04T11:51:47;100809.10;;;-0.98;74.81
35307;BME280;21420;52.196;21.416;2023-12-04T11:54:18;100805.33;;;-0.96;74.58
35307;BME280;21420;52.196;21.416;2023-12-04T11:56:58;100809.30;;;-0.95;74.64
35307;BME280;21420;52.196;21.416;2023-12-04T11:59:26;100807.11;;;-0.86;74.68
35307;BME280;21420;52.196;21.416;2023-12-04T12:01:54;100806.19;;;-0.73;74.86
35307;BME280;21420;52.196;21.416;2023-12-04T12:04:25;100804.94;;;-0.62;74.84
35307;BME280;21420;52.196;21.416;2023-12-04T12:06:55;100800.88;;;-0.51;75.00
35307;BME280;21420;52.196;21.416;2023-12-04T12:09:23;100796.65;;;-0.45;74.86
35307;BME280;21420;52.196;21.416;2023-12-04T12:11:51;100801.66;;;-0.38;74.82
35307;BME280;21420;52.196;21.416;2023-12-04T12:14:20;100800.54;;;-0.32;74.77
35307;BME280;21420;52.196;21.416;2023-12-04T12:16:48;100796.95;;;-0.31;74.72
35307;BME280;21420;52.196;21.416;2023-12-04T12:19:15;100791.62;;;-0.35;74.52
35307;BME280;21420;52.196;21.416;2023-12-04T12:21:44;100794.64;;;-0.40;74.46
35307;BME280;21420;52.196;21.416;2023-12-04T12:24:12;100789.09;;;-0.40;74.50
35307;BME280;21420;52.196;21.416;2023-12-04T12:26:39;100785.27;;;-0.40;74.62
35307;BME280;21420;52.196;21.416;2023-12-04T12:29:06;100784.64;;;-0.43;74.53
35307;BME280;21420;52.196;21.416;2023-12-04T12:31:35;100782.93;;;-0.48;74.42
35307;BME280;21420;52.196;21.416;2023-12-04T12:34:02;100779.38;;;-0.52;74.36
35307;BME280;21420;52.196;21.416;2023-12-04T12:36:30;100779.77;;;-0.61;74.27
35307;BME280;21420;52.196;21.416;2023-12-04T12:39:00;100779.13;;;-0.69;74.32
35307;BME280;21420;52.196;21.416;2023-12-04T12:41:30;100779.78;;;-0.73;74.46
35307;BME280;21420;52.196;21.416;2023-12-04T12:43:57;100781.23;;;-0.75;74.33
35307;BME280;21420;52.196;21.416;2023-12-04T12:46:24;100783.17;;;-0.73;74.40
35307;BME280;21420;52.196;21.416;2023-12-04T12:48:52;100783.98;;;-0.74;74.57
35307;BME280;21420;52.196;21.416;2023-12-04T12:51:19;100783.79;;;-0.71;74.51
35307;BME280;21420;52.196;21.416;2023-12-04T12:53:47;100785.69;;;-0.74;74.51
35307;BME280;21420;52.196;21.416;2023-12-04T12:56:18;100779.42;;;-0.77;74.51